الصفحة الرئيسية
METAR-TAF:

METAR-TAF

مطار :

سانت جونز, أريزونا, الولايات المتحدة

دائرة عرض: 34-31-06N, خط طول: 109-22-45W, ارتفاع: 1747 متر

مراقبة الطقس الحالي

تاريخ ووقت الإصدار 31 دقيقة قبل الساعة 09:54UTC
ريح 6 عقدة من الشمال
درجة الحرارة 8°درجة مئوية
الرطوبة 29%
ضغط 1027 hPa
الرؤية: 16.1 كم
سماء صافية

METAR: KSJN 290954Z AUTO 35006KT 10SM CLR 08/M09 A3033 RMK AO2 SLP198 T00781089

زمن: 03:25 (10:25 UTC)


TAF: مفقودة

أرصاد الطقس والتوقعات من أكثر من 4000 مطار (تقارير الطقس للمطار METAR والتنبؤ بالطقس بالمطارTAF).

المحطات المتاحة هي النقط الصفراء والحمراء على الخريطة.

حرك المؤشر فوق النقطة لمعرفة اسم المحطة.

ثم انقر لمعرفة أرصاد وتوقعات الطقس.

لتغيير الخارطة: اضغط على الأزرار الخضراء مع رمز الصليب الأسود للتكبير. على الزر الأخضر مع شرطة للتصغير، أو على الأسهم الخضراء للخرائط المجاورة.


METAR-TAF: